This is the latest recevied weather packets stored in our database for station/object N7ZEF. If no packets are shown the sender has not sent any weather packets the latest 1 day(s).
| Time | Temp. | Humidity | Pressure | Rain* | Wind** | Luminosity | Snow |
|---|---|---|---|---|---|---|---|
| 1778119909 | 6.67° C | 48% | 1019.2 hPa | 0 mm | - | - | - |
| 1778117503 | 8.33° C | 41% | 1018.9 hPa | 0 mm | - | - | - |
| 1778116902 | 8.89° C | 39% | 1018.9 hPa | 0 mm | - | - | - |
| 1778115700 | 9.44° C | 38% | 1018.8 hPa | 0 mm | - | - | - |
| 1778114496 | 9.44° C | 35% | 1018.8 hPa | 0 mm | - | - | - |
| 1778113294 | 9.44° C | 34% | 1019 hPa | 0 mm | - | - | - |
| 1778112692 | 9.44° C | 35% | 1019 hPa | 0 mm | - | - | - |
| 1778110891 | 9.44° C | 39% | 1019.3 hPa | 0 mm | - | - | - |
| 1778109084 | 8.89° C | 39% | 1019.3 hPa | 0 mm | - | - | - |
| 1778107280 | 8.33° C | 41% | 1019.6 hPa | 0 mm | - | - | - |
| 1778103072 | 7.22° C | 42% | 1020.7 hPa | 0 mm | - | - | - |
| 1778102469 | 7.78° C | 41% | 1020.7 hPa | 0 mm | - | - | - |
| 1778101869 | 6.67° C | 45% | 1020.6 hPa | 0 mm | - | - | - |
| 1778100665 | 6.67° C | 46% | 1020.7 hPa | 0 mm | - | - | - |
| 1778095850 | 3.89° C | 55% | 1021.5 hPa | 0 mm | - | - | - |
| 1778092843 | 2.22° C | 60% | 1021.8 hPa | 0 mm | - | - | - |
| 1778091039 | 2.22° C | 60% | 1021.8 hPa | 0 mm | - | - | - |
| 1778088032 | 1.67° C | 63% | 1022.1 hPa | 0 mm | - | - | - |
| 1778086228 | 1.11° C | 73% | 1022 hPa | 1.02 mm | - | - | - |
| 1778084424 | -0.56° C | 82% | 1021.6 hPa | 1.02 mm | - | - | - |
| 1778081417 | 0° C | 88% | 1021.3 hPa | 1.52 mm | - | - | - |
| 1778078410 | 0° C | 97% | 1021.1 hPa | 0.51 mm | - | - | - |
| 1778076606 | -1.11° C | 98% | 1021.1 hPa | 0.51 mm | - | - | - |
| 1778073599 | -1.11° C | 100% | 1020.6 hPa | 0 mm | - | - | - |
| 1778071795 | -2.22° C | 100% | 1020.1 hPa | 0 mm | - | - | - |
* Rain latest hour (hover to see other rain measurements)
** Current wind speed in m/s (hover to see current wind gust speed)